Time;durP1;ratioP1;P1;durP2;ratioP2;P2;SDS_P1;SDS_P2;PMS_P1;PMS_P2;Temp;Humidity;BMP_temperature;BMP_pressure;BME280_temperature;BME280_humidity;BME280_pressure;Samples;Min_cycle;Max_cycle;Signal;HPM_P1;HPM_P2
2023/12/30 00:02:04;;;;;;;2.63;0.93;;;6.90;99.90;;;;;;4994108;28;20042;-75
2023/12/30 00:04:30;;;;;;;2.92;0.20;;;6.90;99.90;;;;;;5015314;28;20046;-75
2023/12/30 00:06:56;;;;;;;0.50;0.30;;;6.90;99.90;;;;;;5015014;28;20080;-75
2023/12/30 00:09:22;;;;;;;5.35;0.40;;;6.80;99.90;;;;;;4994591;28;20050;-74
2023/12/30 00:11:47;;;;;;;1.38;0.40;;;6.80;99.90;;;;;;5007172;28;20042;-75
2023/12/30 00:14:13;;;;;;;1.45;0.40;;;6.80;99.90;;;;;;4982447;28;20050;-74
2023/12/30 00:16:41;;;;;;;2.88;0.55;;;6.80;99.90;;;;;;4995053;28;20049;-75
2023/12/30 00:19:08;;;;;;;1.65;0.35;;;6.70;99.90;;;;;;4977341;28;20132;-75
2023/12/30 00:21:34;;;;;;;1.38;0.30;;;6.70;99.90;;;;;;5015262;28;20098;-75
2023/12/30 00:23:59;;;;;;;4.93;0.77;;;6.70;99.90;;;;;;5013303;28;20065;-75
2023/12/30 00:26:26;;;;;;;6.90;0.65;;;6.60;99.90;;;;;;4998408;28;20077;-75
2023/12/30 00:28:53;;;;;;;1.10;0.50;;;6.60;99.90;;;;;;4998010;28;20037;-73
2023/12/30 00:31:23;;;;;;;0.90;0.45;;;6.60;99.90;;;;;;4980881;28;20045;-73
2023/12/30 00:33:49;;;;;;;1.65;0.75;;;6.60;99.90;;;;;;4996046;28;20053;-72
2023/12/30 00:36:15;;;;;;;8.02;0.52;;;6.50;99.90;;;;;;4992349;28;20057;-72
2023/12/30 00:38:41;;;;;;;2.88;0.68;;;6.50;99.90;;;;;;4997833;28;20068;-73
2023/12/30 00:41:07;;;;;;;2.17;0.43;;;6.50;99.90;;;;;;4998159;28;20436;-73
2023/12/30 00:43:32;;;;;;;0.77;0.22;;;6.50;99.90;;;;;;4982095;28;20046;-72
2023/12/30 00:45:58;;;;;;;3.33;0.28;;;6.50;99.90;;;;;;5013744;28;20057;-72
2023/12/30 00:48:24;;;;;;;1.75;0.50;;;6.50;99.90;;;;;;4982045;28;20163;-72
2023/12/30 00:50:49;;;;;;;3.30;0.68;;;6.50;99.90;;;;;;5000062;28;20042;-72
2023/12/30 00:53:15;;;;;;;5.72;0.20;;;6.50;99.90;;;;;;5041821;28;20043;-72
2023/12/30 00:55:41;;;;;;;1.40;0.50;;;6.50;99.90;;;;;;4985098;28;20075;-72
2023/12/30 00:58:06;;;;;;;2.35;0.55;;;6.50;99.90;;;;;;4999211;28;20042;-72
2023/12/30 01:00:32;;;;;;;2.60;0.28;;;6.50;99.90;;;;;;4986349;28;20045;-72
2023/12/30 01:02:58;;;;;;;0.98;0.20;;;6.50;99.90;;;;;;4984213;28;20067;-73
2023/12/30 01:05:23;;;;;;;3.85;0.35;;;6.40;99.90;;;;;;5003369;28;20038;-73
2023/12/30 01:07:49;;;;;;;1.15;0.32;;;6.40;99.90;;;;;;4974416;28;20046;-73
2023/12/30 01:10:17;;;;;;;0.20;0.20;;;6.40;99.90;;;;;;4981697;28;20042;-72
2023/12/30 01:12:43;;;;;;;7.82;0.70;;;6.40;99.90;;;;;;5010569;28;20050;-73
2023/12/30 01:15:09;;;;;;;2.95;0.30;;;6.40;99.90;;;;;;5024514;28;20042;-72
2023/12/30 01:17:35;;;;;;;0.82;0.40;;;6.40;99.90;;;;;;4992580;28;20703;-72
2023/12/30 01:20:01;;;;;;;3.50;0.77;;;6.40;99.90;;;;;;5020910;28;20099;-73
2023/12/30 01:22:27;;;;;;;7.10;0.60;;;6.40;99.90;;;;;;5019151;28;20045;-72
2023/12/30 01:24:53;;;;;;;0.25;0.13;;;6.40;99.90;;;;;;4984458;28;20172;-72
2023/12/30 01:27:18;;;;;;;2.35;1.10;;;6.40;99.90;;;;;;5018221;28;20064;-73
2023/12/30 01:29:44;;;;;;;2.22;0.73;;;6.40;99.90;;;;;;5014833;28;20059;-72
2023/12/30 01:32:10;;;;;;;1.10;0.60;;;6.40;99.90;;;;;;5014413;28;20065;-72
2023/12/30 01:34:35;;;;;;;4.82;0.85;;;6.40;99.90;;;;;;4981999;28;20061;-72
2023/12/30 01:37:01;;;;;;;4.03;0.50;;;6.40;99.90;;;;;;4981009;28;20052;-73
2023/12/30 01:39:27;;;;;;;0.10;0.10;;;6.40;99.90;;;;;;4999604;28;20053;-72
2023/12/30 01:41:52;;;;;;;0.30;0.22;;;6.30;99.90;;;;;;5004984;28;20125;-73
2023/12/30 01:44:18;;;;;;;2.97;0.15;;;6.30;99.90;;;;;;4983678;28;20034;-72
2023/12/30 01:46:44;;;;;;;5.50;0.73;;;6.30;99.90;;;;;;5016172;28;20037;-73
2023/12/30 01:49:11;;;;;;;3.65;0.50;;;6.30;99.90;;;;;;5006414;28;20046;-73
2023/12/30 01:51:37;;;;;;;0.60;0.35;;;6.30;99.90;;;;;;4998668;28;20567;-72
2023/12/30 01:54:04;;;;;;;0.90;0.47;;;6.30;99.90;;;;;;4994879;28;20042;-72
2023/12/30 01:56:31;;;;;;;0.68;0.20;;;6.30;99.90;;;;;;4993701;28;20053;-73
2023/12/30 01:58:59;;;;;;;8.65;0.60;;;6.20;99.90;;;;;;4992645;28;20046;-73
2023/12/30 02:01:27;;;;;;;5.05;0.60;;;6.20;99.90;;;;;;5015176;28;20434;-72
2023/12/30 02:03:53;;;;;;;0.22;0.15;;;6.20;99.90;;;;;;5018042;28;20075;-72
2023/12/30 02:06:19;;;;;;;5.47;0.50;;;6.30;99.90;;;;;;4999892;28;20042;-73
2023/12/30 02:08:45;;;;;;;4.80;0.47;;;6.20;99.90;;;;;;5026376;28;20049;-73
2023/12/30 02:11:12;;;;;;;0.52;0.30;;;6.20;99.90;;;;;;4983630;28;20038;-72
2023/12/30 02:13:42;;;;;;;0.30;0.20;;;6.20;99.90;;;;;;5018182;28;20042;-73
2023/12/30 02:16:07;;;;;;;5.25;0.80;;;6.20;99.90;;;;;;5015817;28;20046;-73
2023/12/30 02:18:33;;;;;;;2.03;0.28;;;6.20;99.90;;;;;;5017906;28;20125;-72
2023/12/30 02:20:59;;;;;;;7.32;1.05;;;6.20;99.90;;;;;;5016645;28;20063;-73
2023/12/30 02:23:24;;;;;;;3.58;0.85;;;6.20;99.90;;;;;;4983295;28;20626;-72
2023/12/30 02:25:50;;;;;;;0.95;0.20;;;6.20;99.90;;;;;;4984179;28;20091;-72
2023/12/30 02:28:16;;;;;;;3.25;0.55;;;6.20;99.90;;;;;;4980143;28;20054;-72
2023/12/30 02:30:42;;;;;;;0.95;0.30;;;6.20;99.90;;;;;;4973856;28;20050;-73
2023/12/30 02:33:08;;;;;;;7.90;0.85;;;6.20;99.90;;;;;;4976959;28;20107;-73
2023/12/30 02:35:34;;;;;;;2.05;0.28;;;6.10;99.90;;;;;;4991699;28;20046;-73
2023/12/30 02:37:59;;;;;;;3.20;0.65;;;6.10;99.90;;;;;;4998538;28;20049;-72
2023/12/30 02:40:26;;;;;;;6.07;0.93;;;6.10;99.90;;;;;;4980244;28;20056;-72
2023/12/30 02:42:51;;;;;;;0.73;0.35;;;6.00;99.90;;;;;;4981580;28;20626;-72
2023/12/30 02:45:17;;;;;;;6.00;0.73;;;6.00;99.90;;;;;;4991883;28;20073;-72
2023/12/30 02:47:43;;;;;;;4.68;1.15;;;6.00;99.90;;;;;;4998335;28;20056;-72
2023/12/30 02:50:09;;;;;;;3.97;0.50;;;6.00;99.90;;;;;;4996321;28;20045;-72
2023/12/30 02:52:35;;;;;;;3.97;0.90;;;6.00;99.90;;;;;;4982592;28;20081;-72
2023/12/30 02:55:03;;;;;;;7.78;0.85;;;6.00;99.90;;;;;;4993964;28;20034;-73
2023/12/30 02:57:28;;;;;;;5.72;0.98;;;6.00;99.90;;;;;;4967192;28;20053;-72
2023/12/30 02:59:54;;;;;;;3.55;0.65;;;6.00;99.90;;;;;;4977994;28;20047;-72
2023/12/30 03:02:20;;;;;;;5.35;0.85;;;6.00;99.90;;;;;;4981474;28;20555;-72
2023/12/30 03:04:45;;;;;;;3.95;0.57;;;6.00;99.90;;;;;;4964414;28;20133;-72
2023/12/30 03:07:11;;;;;;;25.95;1.45;;;6.00;99.90;;;;;;4978706;28;20160;-72
2023/12/30 03:09:37;;;;;;;1.85;0.88;;;6.00;99.90;;;;;;4987445;28;20061;-72
2023/12/30 03:12:03;;;;;;;1.30;0.40;;;6.00;99.90;;;;;;4978804;28;20045;-72
2023/12/30 03:14:28;;;;;;;5.28;0.60;;;6.00;99.90;;;;;;4993844;28;20081;-72
2023/12/30 03:16:54;;;;;;;1.52;0.40;;;5.90;99.90;;;;;;4962718;28;20290;-72
2023/12/30 03:19:20;;;;;;;1.45;0.57;;;5.90;99.90;;;;;;4979718;28;20067;-72
2023/12/30 03:21:46;;;;;;;0.75;0.35;;;5.90;99.90;;;;;;4978350;28;20038;-73
2023/12/30 03:24:11;;;;;;;1.75;0.20;;;5.90;99.90;;;;;;5009416;28;20053;-72
2023/12/30 03:26:37;;;;;;;1.50;0.73;;;5.90;99.90;;;;;;4980794;28;20050;-72
2023/12/30 03:29:03;;;;;;;1.90;0.32;;;5.90;99.90;;;;;;4996820;28;20044;-72
2023/12/30 03:31:28;;;;;;;3.00;0.60;;;5.90;99.90;;;;;;4982201;28;20085;-73
2023/12/30 03:33:56;;;;;;;0.80;0.22;;;5.90;99.90;;;;;;5012100;28;20054;-72
2023/12/30 03:36:22;;;;;;;5.28;0.50;;;5.90;99.90;;;;;;4981630;28;20121;-72
2023/12/30 03:38:48;;;;;;;1.10;0.43;;;5.80;99.90;;;;;;4995470;28;20469;-72
2023/12/30 03:41:15;;;;;;;11.02;1.08;;;5.80;99.90;;;;;;5012485;28;20045;-73
2023/12/30 03:43:40;;;;;;;3.55;0.40;;;5.80;99.90;;;;;;4980226;28;20099;-72
2023/12/30 03:46:06;;;;;;;4.28;0.73;;;5.80;99.90;;;;;;4997551;28;20054;-73
2023/12/30 03:48:32;;;;;;;0.90;0.22;;;5.80;99.90;;;;;;4979063;28;20044;-72
2023/12/30 03:50:58;;;;;;;2.60;0.40;;;5.70;99.90;;;;;;4996676;28;20107;-72
2023/12/30 03:53:24;;;;;;;5.45;0.82;;;5.70;99.90;;;;;;5007828;28;20098;-72
2023/12/30 03:55:50;;;;;;;1.77;0.32;;;5.70;99.90;;;;;;5000455;28;20042;-72
2023/12/30 03:58:16;;;;;;;2.58;0.80;;;5.70;99.90;;;;;;4979950;28;20127;-73
2023/12/30 04:00:42;;;;;;;1.98;0.43;;;5.60;99.90;;;;;;4998189;28;20041;-72
2023/12/30 04:03:08;;;;;;;5.85;0.68;;;5.60;99.90;;;;;;4996531;28;20090;-72
2023/12/30 04:05:34;;;;;;;8.98;1.13;;;5.60;99.90;;;;;;5015346;28;20471;-73
2023/12/30 04:08:00;;;;;;;1.50;0.77;;;5.60;99.90;;;;;;5014492;28;20103;-73
2023/12/30 04:10:26;;;;;;;6.22;0.68;;;5.50;99.90;;;;;;4965738;28;20387;-72
2023/12/30 04:12:51;;;;;;;2.85;0.50;;;5.50;99.90;;;;;;4982682;28;20050;-72
2023/12/30 04:15:17;;;;;;;21.95;1.15;;;5.50;99.90;;;;;;5014304;28;20046;-75
2023/12/30 04:17:43;;;;;;;2.05;0.52;;;5.40;99.90;;;;;;4967919;28;20062;-75
2023/12/30 04:20:09;;;;;;;4.22;1.83;;;5.40;99.90;;;;;;5011937;28;20445;-75
2023/12/30 04:22:35;;;;;;;3.35;0.55;;;5.30;99.90;;;;;;4982352;28;20057;-75
2023/12/30 04:25:02;;;;;;;7.10;2.22;;;5.20;99.90;;;;;;4977841;28;20027;-75
2023/12/30 04:27:28;;;;;;;10.32;1.38;;;5.20;99.90;;;;;;4981561;28;20046;-74
2023/12/30 04:29:54;;;;;;;3.83;0.55;;;5.20;99.90;;;;;;5001240;28;20593;-75
2023/12/30 04:32:24;;;;;;;4.20;0.43;;;5.10;99.90;;;;;;4995043;28;20038;-74
2023/12/30 04:34:51;;;;;;;0.67;0.30;;;5.10;99.90;;;;;;4992608;28;20075;-74
2023/12/30 04:37:19;;;;;;;0.98;0.38;;;5.10;99.90;;;;;;4983646;28;20042;-75
2023/12/30 04:39:45;;;;;;;5.00;0.45;;;5.00;99.90;;;;;;4990091;28;20061;-75
2023/12/30 04:42:11;;;;;;;1.50;0.32;;;5.00;99.90;;;;;;4970617;28;20113;-75
2023/12/30 04:44:37;;;;;;;5.25;0.57;;;5.10;99.90;;;;;;4963306;28;20039;-75
2023/12/30 04:47:03;;;;;;;2.95;1.15;;;5.10;99.90;;;;;;4999908;28;20060;-75
2023/12/30 04:49:29;;;;;;;1.63;1.23;;;5.10;99.90;;;;;;5015880;28;20046;-75
2023/12/30 04:51:54;;;;;;;5.28;0.57;;;5.10;99.90;;;;;;4965686;28;20042;-74
2023/12/30 04:54:20;;;;;;;0.75;0.40;;;5.10;99.90;;;;;;4960234;28;20448;-75
2023/12/30 04:56:46;;;;;;;2.30;0.60;;;5.20;99.90;;;;;;5001383;28;20042;-75
2023/12/30 04:59:12;;;;;;;10.00;0.70;;;5.30;99.90;;;;;;4979946;28;20115;-75
2023/12/30 05:01:38;;;;;;;4.78;0.63;;;5.30;99.90;;;;;;4995398;28;20049;-75
2023/12/30 05:04:03;;;;;;;10.23;1.05;;;5.40;99.90;;;;;;4993177;28;20038;-75
2023/12/30 05:06:30;;;;;;;0.95;0.55;;;5.40;99.90;;;;;;4998903;28;20098;-75
2023/12/30 05:08:58;;;;;;;12.60;0.60;;;5.40;99.90;;;;;;5000445;28;20034;-75
2023/12/30 05:11:24;;;;;;;2.15;0.17;;;5.40;99.90;;;;;;5000244;28;20463;-75
2023/12/30 05:13:49;;;;;;;1.52;0.45;;;5.30;99.90;;;;;;5001025;28;20048;-75
2023/12/30 05:16:15;;;;;;;2.40;0.50;;;5.20;99.90;;;;;;5027345;28;20478;-75
2023/12/30 05:18:41;;;;;;;4.00;1.15;;;5.20;99.90;;;;;;5001136;28;20046;-75
2023/12/30 05:21:16;;;;;;;11.15;3.20;;;5.20;99.90;;;;;;4985454;28;20061;-75
2023/12/30 05:23:43;;;;;;;2.42;0.65;;;5.20;99.90;;;;;;4997287;28;20092;-72
2023/12/30 05:26:09;;;;;;;1.73;0.60;;;5.20;99.90;;;;;;4985010;28;20072;-74
2023/12/30 05:28:35;;;;;;;4.68;1.40;;;5.20;99.90;;;;;;5003600;28;20053;-74
2023/12/30 05:31:01;;;;;;;8.63;0.88;;;5.20;99.90;;;;;;5018888;28;20027;-74
2023/12/30 05:33:27;;;;;;;5.82;0.75;;;5.20;99.90;;;;;;4983620;28;20478;-74
2023/12/30 05:35:53;;;;;;;1.40;0.40;;;5.10;99.90;;;;;;4967724;28;20183;-74
2023/12/30 05:38:18;;;;;;;12.32;0.77;;;5.20;99.90;;;;;;5000421;28;20053;-74
2023/12/30 05:40:44;;;;;;;7.68;1.13;;;5.20;99.90;;;;;;4968333;28;20042;-74
2023/12/30 05:43:10;;;;;;;2.70;0.68;;;5.20;99.90;;;;;;4998133;28;20042;-74
2023/12/30 05:45:35;;;;;;;3.08;0.50;;;5.20;99.90;;;;;;4990649;28;20042;-74
2023/12/30 05:48:02;;;;;;;1.50;0.75;;;5.20;99.90;;;;;;4996280;28;20092;-74
2023/12/30 05:50:28;;;;;;;2.55;0.65;;;5.20;99.90;;;;;;4980302;28;20063;-74
2023/12/30 05:52:55;;;;;;;5.07;0.45;;;5.20;99.90;;;;;;4999721;28;20045;-74
2023/12/30 05:55:21;;;;;;;3.58;0.88;;;5.20;99.90;;;;;;5005663;28;20057;-74
2023/12/30 05:57:47;;;;;;;1.25;0.45;;;5.20;99.90;;;;;;4998307;28;20046;-74
2023/12/30 06:00:15;;;;;;;0.82;0.55;;;5.20;99.90;;;;;;4983141;28;20044;-74
2023/12/30 06:02:41;;;;;;;8.70;0.73;;;5.20;99.90;;;;;;4991335;28;20578;-74
2023/12/30 06:05:07;;;;;;;9.27;0.60;;;5.20;99.90;;;;;;4997612;28;20030;-74
2023/12/30 06:07:33;;;;;;;1.08;0.50;;;5.20;99.90;;;;;;4979370;28;20459;-74
2023/12/30 06:09:59;;;;;;;3.47;0.65;;;5.20;99.90;;;;;;5014572;28;20046;-74
2023/12/30 06:12:24;;;;;;;3.03;0.68;;;5.20;99.90;;;;;;4983902;28;20049;-74
2023/12/30 06:14:50;;;;;;;3.00;0.25;;;5.20;99.90;;;;;;5019868;28;20137;-74
2023/12/30 06:17:16;;;;;;;4.68;0.38;;;5.10;99.90;;;;;;5005092;28;20041;-74
2023/12/30 06:19:42;;;;;;;8.93;0.73;;;5.10;99.90;;;;;;4969316;28;20038;-74
2023/12/30 06:22:07;;;;;;;2.50;0.40;;;5.10;99.90;;;;;;4984242;28;20045;-74
2023/12/30 06:24:33;;;;;;;6.55;0.80;;;5.00;99.90;;;;;;5000462;28;20433;-74
2023/12/30 06:26:59;;;;;;;0.63;0.40;;;5.00;99.90;;;;;;4968157;28;20135;-74
2023/12/30 06:29:28;;;;;;;1.63;0.77;;;5.00;99.90;;;;;;4997280;28;20056;-74
2023/12/30 06:31:53;;;;;;;1.90;0.68;;;5.00;99.90;;;;;;4981099;28;20087;-74
2023/12/30 06:34:20;;;;;;;0.85;0.40;;;5.00;99.90;;;;;;4998825;28;20062;-74
2023/12/30 06:36:47;;;;;;;5.75;0.77;;;5.00;99.90;;;;;;4998005;28;20072;-74
2023/12/30 06:39:13;;;;;;;9.32;0.63;;;5.00;99.90;;;;;;4995934;28;20056;-74
2023/12/30 06:41:40;;;;;;;6.53;0.90;;;4.90;99.90;;;;;;5000374;28;20042;-74
2023/12/30 06:44:05;;;;;;;1.75;0.50;;;4.90;99.90;;;;;;4981055;28;20057;-74
2023/12/30 06:46:33;;;;;;;1.20;0.60;;;4.90;99.90;;;;;;4993413;28;20026;-74
2023/12/30 06:48:59;;;;;;;20.02;1.10;;;4.90;99.90;;;;;;4995921;28;20045;-74
2023/12/30 06:51:26;;;;;;;8.05;0.60;;;4.90;99.90;;;;;;4997632;28;20054;-74
2023/12/30 06:53:52;;;;;;;4.95;0.65;;;4.90;99.90;;;;;;5012916;28;20109;-74
2023/12/30 06:56:18;;;;;;;0.32;0.20;;;4.90;99.90;;;;;;4982481;28;20077;-74
2023/12/30 06:58:45;;;;;;;1.05;0.43;;;4.90;99.90;;;;;;4981755;28;20041;-74
2023/12/30 07:01:14;;;;;;;1.90;0.32;;;4.90;99.90;;;;;;4980410;28;20105;-74
2023/12/30 07:03:40;;;;;;;0.90;0.30;;;4.90;99.90;;;;;;4996735;28;20033;-75
2023/12/30 07:06:06;;;;;;;5.20;1.08;;;4.90;99.90;;;;;;4996861;28;20057;-74
2023/12/30 07:08:32;;;;;;;6.18;1.20;;;4.90;99.90;;;;;;4988908;28;20054;-74
2023/12/30 07:10:58;;;;;;;7.32;1.33;;;4.90;99.90;;;;;;5006577;28;20087;-74
2023/12/30 07:13:23;;;;;;;2.47;0.68;;;4.80;99.90;;;;;;4978200;28;20053;-75
2023/12/30 07:15:50;;;;;;;4.68;0.70;;;4.80;99.90;;;;;;5012065;28;20046;-74
2023/12/30 07:18:17;;;;;;;4.88;0.40;;;4.80;99.90;;;;;;5009572;28;20052;-75
2023/12/30 07:20:43;;;;;;;3.17;0.45;;;4.80;99.90;;;;;;4976603;28;20476;-75
2023/12/30 07:23:09;;;;;;;2.33;0.70;;;4.70;99.90;;;;;;5016519;28;20078;-75
2023/12/30 07:25:35;;;;;;;2.78;0.20;;;4.70;99.90;;;;;;4998515;28;20042;-74
2023/12/30 07:28:01;;;;;;;0.50;0.22;;;4.60;99.90;;;;;;4996429;28;20046;-75
2023/12/30 07:30:26;;;;;;;4.20;0.55;;;4.60;99.90;;;;;;4998092;28;20050;-75
2023/12/30 07:32:52;;;;;;;1.77;0.63;;;4.50;99.90;;;;;;5012692;28;20384;-75
2023/12/30 07:35:18;;;;;;;1.85;0.70;;;4.50;99.90;;;;;;4971020;28;20092;-74
2023/12/30 07:37:46;;;;;;;5.75;0.80;;;4.40;99.90;;;;;;4979630;28;20053;-75
2023/12/30 07:40:12;;;;;;;3.55;0.32;;;4.50;99.90;;;;;;4966546;28;20052;-74
2023/12/30 07:42:38;;;;;;;2.08;0.60;;;4.40;99.90;;;;;;5012991;28;20058;-75
2023/12/30 07:45:06;;;;;;;5.55;1.15;;;4.40;99.90;;;;;;5013443;28;20045;-75
2023/12/30 07:47:33;;;;;;;3.55;0.75;;;4.40;99.90;;;;;;5011420;28;20088;-74
2023/12/30 07:49:58;;;;;;;1.23;0.30;;;4.40;99.90;;;;;;4972214;28;20049;-74
2023/12/30 07:52:24;;;;;;;2.70;0.75;;;4.40;99.90;;;;;;4998407;28;20073;-74
2023/12/30 07:54:50;;;;;;;6.82;1.23;;;4.40;99.90;;;;;;4977047;28;20137;-74
2023/12/30 07:57:16;;;;;;;5.68;0.40;;;4.40;99.90;;;;;;4996196;28;20053;-74
2023/12/30 07:59:41;;;;;;;2.42;0.65;;;4.40;99.90;;;;;;4996011;28;20074;-74
2023/12/30 08:02:07;;;;;;;1.98;0.43;;;4.40;99.90;;;;;;4980671;28;20042;-74
2023/12/30 08:04:33;;;;;;;3.55;0.77;;;4.40;99.90;;;;;;4993873;28;20039;-75
2023/12/30 08:06:58;;;;;;;0.47;0.40;;;4.40;99.90;;;;;;5006360;28;20079;-75
2023/12/30 08:09:24;;;;;;;5.63;0.80;;;4.50;99.90;;;;;;5008970;28;20136;-75
2023/12/30 08:11:50;;;;;;;8.45;0.93;;;4.50;99.90;;;;;;4975632;28;20047;-74
2023/12/30 08:14:17;;;;;;;1.48;0.60;;;4.50;99.90;;;;;;4977813;28;20042;-74
2023/12/30 08:16:43;;;;;;;9.35;0.82;;;4.60;99.90;;;;;;5011629;28;20042;-74
2023/12/30 08:19:09;;;;;;;7.15;0.82;;;4.60;99.90;;;;;;4989415;28;20038;-75
2023/12/30 08:21:35;;;;;;;0.47;0.40;;;4.60;99.90;;;;;;5008869;28;20046;-75
2023/12/30 08:24:01;;;;;;;2.08;0.50;;;4.70;99.90;;;;;;5006893;28;20068;-75
2023/12/30 08:26:28;;;;;;;5.13;0.60;;;4.70;99.90;;;;;;5012964;28;20065;-75
2023/12/30 08:28:57;;;;;;;1.77;0.63;;;4.70;99.90;;;;;;5005535;28;20045;-74
2023/12/30 08:31:22;;;;;;;5.82;0.73;;;4.80;99.90;;;;;;4974450;28;20062;-75
2023/12/30 08:33:48;;;;;;;7.63;0.70;;;4.70;99.90;;;;;;4976760;28;20038;-74
2023/12/30 08:36:14;;;;;;;7.70;0.93;;;4.90;99.90;;;;;;4989807;28;20050;-75
2023/12/30 08:38:40;;;;;;;2.15;0.68;;;4.90;99.90;;;;;;4976382;28;20056;-75
2023/12/30 08:41:10;;;;;;;5.78;0.47;;;4.90;99.90;;;;;;4990664;28;20521;-74
2023/12/30 08:43:36;;;;;;;4.68;1.23;;;5.00;99.90;;;;;;5002922;28;20081;-75
2023/12/30 08:46:02;;;;;;;0.55;0.47;;;5.00;99.90;;;;;;4993415;28;20065;-75
2023/12/30 08:48:27;;;;;;;1.45;0.65;;;5.10;99.90;;;;;;4998722;28;20501;-74
2023/12/30 08:50:53;;;;;;;6.32;0.50;;;5.10;99.90;;;;;;4982329;28;20046;-75
2023/12/30 08:53:24;;;;;;;11.10;1.52;;;5.10;99.90;;;;;;4981748;28;20111;-74
2023/12/30 08:55:52;;;;;;;6.28;0.73;;;5.20;99.90;;;;;;4981890;28;20110;-75
2023/12/30 08:58:18;;;;;;;1.73;0.68;;;5.30;99.90;;;;;;4981501;28;20042;-75
2023/12/30 09:00:44;;;;;;;9.98;1.00;;;5.40;99.90;;;;;;4998340;28;20046;-74
2023/12/30 09:03:10;;;;;;;3.72;0.73;;;5.40;99.90;;;;;;4966970;28;20052;-74
2023/12/30 09:05:35;;;;;;;1.95;0.30;;;5.50;99.90;;;;;;4993976;28;20089;-74
2023/12/30 09:08:03;;;;;;;3.25;0.43;;;5.50;99.90;;;;;;4981626;28;20048;-74
2023/12/30 09:10:30;;;;;;;7.88;0.80;;;5.50;99.90;;;;;;5014224;28;20175;-74
2023/12/30 09:12:56;;;;;;;4.80;0.30;;;5.60;99.90;;;;;;5001308;28;20034;-75
2023/12/30 09:15:22;;;;;;;1.35;0.45;;;5.60;99.90;;;;;;5014311;28;20076;-75
2023/12/30 09:17:47;;;;;;;4.72;0.52;;;5.60;99.90;;;;;;5001675;28;20053;-75
2023/12/30 09:20:13;;;;;;;3.85;1.02;;;5.70;99.90;;;;;;4999025;28;20038;-74
2023/12/30 09:22:39;;;;;;;8.85;1.27;;;5.80;99.90;;;;;;4968225;28;20038;-75
2023/12/30 09:25:05;;;;;;;8.07;1.02;;;5.80;99.90;;;;;;4999897;28;20517;-75
2023/12/30 09:27:32;;;;;;;1.65;0.60;;;5.90;99.90;;;;;;4985499;28;20046;-75
2023/12/30 09:29:57;;;;;;;1.77;0.77;;;5.90;99.90;;;;;;4968742;28;20042;-81
2023/12/30 09:32:23;;;;;;;1.85;0.95;;;6.00;99.90;;;;;;4982720;28;20042;-81
2023/12/30 09:34:49;;;;;;;4.32;0.95;;;6.10;99.90;;;;;;4985084;28;20041;-81
2023/12/30 09:37:15;;;;;;;2.83;0.70;;;6.20;99.90;;;;;;4984318;28;20418;-81
2023/12/30 09:39:42;;;;;;;5.65;0.88;;;6.40;99.90;;;;;;4983770;28;20106;-81
2023/12/30 09:42:07;;;;;;;4.32;1.15;;;6.50;99.90;;;;;;5011330;28;20065;-81
2023/12/30 09:44:33;;;;;;;8.93;0.80;;;6.70;99.90;;;;;;4984101;28;20042;-81
2023/12/30 09:47:01;;;;;;;8.18;1.45;;;6.70;99.90;;;;;;4992974;28;20045;-81
2023/12/30 09:49:34;;;;;;;4.28;1.50;;;6.90;99.90;;;;;;4983621;28;20508;-81
2023/12/30 09:52:02;;;;;;;3.53;1.17;;;7.00;99.90;;;;;;4990114;28;20065;-81
2023/12/30 09:54:28;;;;;;;2.22;1.42;;;7.10;99.90;;;;;;4999589;28;20046;-81
2023/12/30 09:56:56;;;;;;;4.00;1.35;;;7.20;99.90;;;;;;5085352;28;20061;-81
2023/12/30 09:59:23;;;;;;;2.45;1.13;;;7.20;99.90;;;;;;4981937;28;20049;-81
2023/12/30 10:01:49;;;;;;;3.30;1.63;;;7.10;99.90;;;;;;4998789;28;20581;-81
2023/12/30 10:04:15;;;;;;;7.03;1.92;;;7.00;99.90;;;;;;4983604;28;20042;-81
2023/12/30 10:06:43;;;;;;;5.20;1.33;;;6.80;99.90;;;;;;4983288;28;20042;-81
2023/12/30 10:09:10;;;;;;;3.30;1.23;;;6.80;99.90;;;;;;5003450;28;20073;-82
2023/12/30 10:11:37;;;;;;;3.38;1.80;;;6.70;99.90;;;;;;4982600;28;20044;-82
2023/12/30 10:14:02;;;;;;;11.18;2.20;;;6.60;99.90;;;;;;5000769;28;20052;-82
2023/12/30 10:16:29;;;;;;;3.25;1.50;;;6.60;99.90;;;;;;4982880;28;20309;-81
2023/12/30 10:18:56;;;;;;;8.93;2.55;;;6.50;99.90;;;;;;4998457;28;20397;-82
2023/12/30 10:21:22;;;;;;;8.07;2.03;;;6.60;99.90;;;;;;5015660;28;20057;-82
2023/12/30 10:23:51;;;;;;;10.73;2.55;;;6.60;99.90;;;;;;4995844;28;20049;-82
2023/12/30 10:26:18;;;;;;;7.88;2.92;;;6.60;99.90;;;;;;5007597;28;20057;-82
2023/12/30 10:28:44;;;;;;;6.05;2.63;;;6.60;99.90;;;;;;4996849;28;20050;-83
2023/12/30 10:31:11;;;;;;;11.95;2.78;;;6.60;99.90;;;;;;4995037;28;20049;-77
2023/12/30 10:33:37;;;;;;;12.70;2.38;;;6.60;99.90;;;;;;4999171;28;20042;-78
2023/12/30 10:36:09;;;;;;;11.18;2.70;;;6.70;99.90;;;;;;4980705;28;20046;-78
2023/12/30 10:38:35;;;;;;;3.30;1.63;;;6.70;99.90;;;;;;4999541;28;20049;-78
2023/12/30 10:41:01;;;;;;;6.10;1.98;;;6.80;99.90;;;;;;5015246;28;20065;-78
2023/12/30 10:43:27;;;;;;;8.55;1.63;;;6.80;99.90;;;;;;5014739;28;20099;-78
2023/12/30 10:45:58;;;;;;;11.13;2.30;;;6.90;99.90;;;;;;5012137;28;20052;-79
2023/12/30 10:48:30;;;;;;;4.05;1.42;;;6.90;99.90;;;;;;5014090;28;20049;-81
2023/12/30 10:50:57;;;;;;;5.25;1.48;;;7.00;99.90;;;;;;5008190;28;20046;-76
2023/12/30 10:53:31;;;;;;;11.32;1.42;;;7.00;99.90;;;;;;5009926;28;20117;-75
2023/12/30 10:56:00;;;;;;;9.57;1.40;;;7.10;99.90;;;;;;5013061;28;20050;-78
2023/12/30 10:58:27;;;;;;;8.07;1.85;;;7.20;99.90;;;;;;4995753;28;20046;-77
2023/12/30 11:00:57;;;;;;;9.48;2.10;;;7.30;99.90;;;;;;4993075;28;20519;-76
2023/12/30 11:03:24;;;;;;;7.50;1.52;;;7.30;99.90;;;;;;4995260;28;20054;-82
2023/12/30 11:05:50;;;;;;;7.80;1.58;;;7.40;99.90;;;;;;5014471;28;20807;-76
2023/12/30 11:08:17;;;;;;;14.23;1.38;;;7.40;99.90;;;;;;5009354;28;20145;-74
2023/12/30 11:10:43;;;;;;;7.68;1.98;;;7.40;99.90;;;;;;5007549;28;20046;-75
2023/12/30 11:13:09;;;;;;;7.32;1.73;;;7.40;99.90;;;;;;4997142;28;20092;-80
2023/12/30 11:15:38;;;;;;;6.70;1.25;;;7.40;99.90;;;;;;4993921;28;20045;-81
2023/12/30 11:18:03;;;;;;;7.60;1.63;;;7.50;99.90;;;;;;5015303;28;20046;-80
2023/12/30 11:20:31;;;;;;;10.77;1.73;;;7.50;99.90;;;;;;5014356;28;20045;-81
2023/12/30 11:23:07;;;;;;;2.33;0.75;;;7.60;99.90;;;;;;5015198;28;20046;-81
2023/12/30 11:25:42;;;;;;;8.70;1.23;;;7.60;99.90;;;;;;5015437;28;20541;-81
2023/12/30 11:28:18;;;;;;;7.18;1.50;;;7.60;99.90;;;;;;5013055;28;20087;-81
2023/12/30 11:30:51;;;;;;;6.20;1.05;;;7.60;99.90;;;;;;5024586;28;20238;-81
2023/12/30 11:33:17;;;;;;;5.72;1.38;;;7.60;99.90;;;;;;5007325;28;20073;-81
2023/12/30 11:35:43;;;;;;;7.97;2.03;;;7.60;99.90;;;;;;4991887;28;20054;-81
2023/12/30 11:38:11;;;;;;;2.47;1.08;;;7.60;99.90;;;;;;5015295;28;20038;-79
2023/12/30 11:40:41;;;;;;;5.60;1.77;;;7.60;99.90;;;;;;4997171;28;20057;-79
2023/12/30 11:43:11;;;;;;;6.93;1.42;;;7.60;99.90;;;;;;4996724;28;20053;-79
2023/12/30 11:45:37;;;;;;;5.07;1.30;;;7.60;99.90;;;;;;4993737;28;20050;-80
2023/12/30 11:48:03;;;;;;;6.93;1.08;;;7.70;99.90;;;;;;4998456;28;20110;-79
2023/12/30 11:50:29;;;;;;;4.97;0.90;;;7.70;99.90;;;;;;4982108;28;20130;-79
2023/12/30 11:52:56;;;;;;;4.03;1.00;;;7.80;99.90;;;;;;4987219;28;20054;-79
2023/12/30 11:55:24;;;;;;;8.27;1.50;;;7.80;99.90;;;;;;5011081;28;20046;-79
2023/12/30 11:57:51;;;;;;;3.75;1.40;;;7.90;99.90;;;;;;4996817;28;20034;-79
2023/12/30 12:00:17;;;;;;;7.82;1.35;;;7.90;99.90;;;;;;4981746;28;20057;-79
2023/12/30 12:02:43;;;;;;;9.60;1.90;;;8.00;99.90;;;;;;5007636;28;20042;-79
2023/12/30 12:05:08;;;;;;;3.33;0.95;;;8.00;99.90;;;;;;4988731;28;20064;-79
2023/12/30 12:07:34;;;;;;;10.68;1.58;;;7.90;99.90;;;;;;5013707;28;20037;-79
2023/12/30 12:10:00;;;;;;;7.25;1.52;;;7.90;99.90;;;;;;4991635;28;20084;-67
2023/12/30 12:12:35;;;;;;;13.10;2.00;;;7.90;99.90;;;;;;4993933;28;20082;-67
2023/12/30 12:15:02;;;;;;;6.13;1.15;;;7.80;99.90;;;;;;4991851;28;20557;-67
2023/12/30 12:17:27;;;;;;;8.75;1.58;;;7.90;99.90;;;;;;4964467;28;20053;-67
2023/12/30 12:19:53;;;;;;;7.35;1.27;;;7.90;99.90;;;;;;5005868;28;20062;-67
2023/12/30 12:22:21;;;;;;;2.88;1.30;;;7.90;99.90;;;;;;5006992;28;20068;-67
2023/12/30 12:24:47;;;;;;;5.28;1.70;;;8.00;99.90;;;;;;4989090;28;20045;-66
2023/12/30 12:27:19;;;;;;;5.88;1.27;;;8.00;99.90;;;;;;4992308;28;20092;-71
2023/12/30 12:29:45;;;;;;;;;;;8.00;99.90;;;;;;4993000;28;20038;-66
2023/12/30 12:32:15;;;;;;;6.18;1.52;;;8.00;99.90;;;;;;5018094;28;19926;-67
2023/12/30 12:34:41;;;;;;;2.88;1.20;;;8.10;99.90;;;;;;4985244;28;20030;-67
2023/12/30 12:37:12;;;;;;;3.28;1.23;;;8.10;99.90;;;;;;5014627;28;20149;-67
2023/12/30 12:39:38;;;;;;;6.78;1.58;;;8.10;99.90;;;;;;4970233;28;20069;-68
2023/12/30 12:42:04;;;;;;;4.40;1.55;;;8.10;99.90;;;;;;4983448;28;20038;-67
2023/12/30 12:44:30;;;;;;;9.27;1.48;;;8.20;99.90;;;;;;5024709;28;20047;-67
2023/12/30 12:46:55;;;;;;;8.45;1.45;;;8.10;99.90;;;;;;4988893;28;20042;-67
2023/12/30 12:49:22;;;;;;;7.60;1.25;;;8.20;99.90;;;;;;4998774;28;20071;-67
2023/12/30 12:51:51;;;;;;;9.68;3.00;;;8.20;99.90;;;;;;4967054;28;20053;-67
2023/12/30 12:54:17;;;;;;;8.98;1.67;;;8.20;99.90;;;;;;5015213;28;20041;-67